createdAt,value
2018-12-18T00:00:31.788Z,1014.99
2018-12-18T00:01:31.801Z,1015.03
2018-12-18T00:02:31.768Z,1015.03
2018-12-18T00:03:31.782Z,1015.02
2018-12-18T00:04:31.750Z,1015.05
2018-12-18T00:05:31.734Z,1015.06
2018-12-18T00:06:31.723Z,1015.04
2018-12-18T00:07:31.715Z,1015.04
2018-12-18T00:08:31.719Z,1015.06
2018-12-18T00:09:31.729Z,1015.02
2018-12-18T00:10:31.680Z,1015.03
2018-12-18T00:11:31.667Z,1015.02
2018-12-18T00:12:31.655Z,1015.02
2018-12-18T00:13:31.664Z,1015.01
2018-12-18T00:14:31.634Z,1015.03
2018-12-18T00:15:31.624Z,1015.02
2018-12-18T00:16:31.643Z,1015.00
2018-12-18T00:17:31.602Z,1015.02
2018-12-18T00:18:31.611Z,1015.01
2018-12-18T00:19:31.598Z,1015.02
2018-12-18T00:20:31.567Z,1015.04
2018-12-18T00:21:31.556Z,1015.01
2018-12-18T00:22:31.552Z,1015.03
2018-12-18T00:23:31.534Z,1015.04
2018-12-18T00:24:31.563Z,1015.01
2018-12-18T00:25:31.512Z,1015.03
2018-12-18T00:26:31.502Z,1015.02
2018-12-18T00:27:31.489Z,1015.00
2018-12-18T00:28:31.480Z,1015.01
2018-12-18T00:29:31.475Z,1014.97
2018-12-18T00:30:31.475Z,1015.01
2018-12-18T00:31:31.447Z,1015.01
2018-12-18T00:32:31.435Z,1015.04
2018-12-18T00:33:31.425Z,1015.05
2018-12-18T00:34:31.411Z,1014.98
2018-12-18T00:35:31.456Z,1015.06
2018-12-18T00:36:31.390Z,1015.09
2018-12-18T00:37:31.430Z,1015.10
2018-12-18T00:38:31.367Z,1015.12
2018-12-18T00:39:31.357Z,1015.13
2018-12-18T00:40:31.344Z,1015.15
2018-12-18T00:41:31.361Z,1015.13
2018-12-18T00:42:31.323Z,1015.16
2018-12-18T00:43:31.312Z,1015.22
2018-12-18T00:44:31.298Z,1015.20
2018-12-18T00:45:31.311Z,1015.27
2018-12-18T00:46:31.275Z,1015.24
2018-12-18T00:47:31.272Z,1015.27
2018-12-18T00:48:31.255Z,1015.24
2018-12-18T00:49:31.243Z,1015.26
2018-12-18T00:50:31.273Z,1015.21
2018-12-18T00:51:31.222Z,1015.24
2018-12-18T00:52:31.211Z,1015.28
2018-12-18T00:53:31.202Z,1015.22
2018-12-18T00:54:31.188Z,1015.21
2018-12-18T00:55:31.176Z,1015.21
2018-12-18T00:56:31.196Z,1015.23
2018-12-18T00:57:31.173Z,1015.22
2018-12-18T00:58:31.142Z,1015.25
2018-12-18T00:59:31.134Z,1015.23
2018-12-18T01:00:31.151Z,1015.23
2018-12-18T01:01:31.109Z,1015.22
2018-12-18T01:02:31.098Z,1015.27
2018-12-18T01:03:31.086Z,1015.23
2018-12-18T01:04:31.077Z,1015.22
2018-12-18T01:05:31.063Z,1015.24
2018-12-18T01:06:31.080Z,1015.25
2018-12-18T01:07:31.043Z,1015.25
2018-12-18T01:08:31.031Z,1015.28
2018-12-18T01:09:31.038Z,1015.29
2018-12-18T01:10:31.010Z,1015.31
2018-12-18T01:11:30.998Z,1015.34
2018-12-18T01:12:30.995Z,1015.36
2018-12-18T01:13:31.006Z,1015.43
2018-12-18T01:14:30.965Z,1015.43
2018-12-18T01:15:30.952Z,1015.47
2018-12-18T01:16:30.942Z,1015.51
2018-12-18T01:17:30.930Z,1015.48
2018-12-18T01:18:30.944Z,1015.52
2018-12-18T01:19:30.910Z,1015.55
2018-12-18T01:20:30.897Z,1015.54
2018-12-18T01:21:30.906Z,1015.56
2018-12-18T01:22:30.874Z,1015.55
2018-12-18T01:23:30.863Z,1015.55
2018-12-18T01:24:30.892Z,1015.57
2018-12-18T01:25:30.854Z,1015.53
2018-12-18T01:26:30.853Z,1015.54
2018-12-18T01:27:30.846Z,1015.53
2018-12-18T01:28:30.809Z,1015.54
2018-12-18T01:29:30.820Z,1015.52
2018-12-18T01:30:30.787Z,1015.52
2018-12-18T01:31:30.776Z,1015.56
2018-12-18T01:32:30.765Z,1015.53
2018-12-18T01:33:30.768Z,1015.54
2018-12-18T01:34:30.762Z,1015.48
2018-12-18T01:35:30.749Z,1015.51
2018-12-18T01:36:30.720Z,1015.51
2018-12-18T01:37:30.707Z,1015.57
2018-12-18T01:38:30.695Z,1015.54
2018-12-18T01:39:30.693Z,1015.53
2018-12-18T01:40:30.754Z,1015.54
2018-12-18T01:41:30.661Z,1015.51
2018-12-18T01:42:30.652Z,1015.50
2018-12-18T01:43:30.639Z,1015.54
2018-12-18T01:44:30.631Z,1015.53
2018-12-18T01:45:30.649Z,1015.55
2018-12-18T01:46:30.606Z,1015.53
2018-12-18T01:47:30.613Z,1015.53
2018-12-18T01:48:30.587Z,1015.54
2018-12-18T01:49:30.574Z,1015.57
2018-12-18T01:50:30.563Z,1015.57
2018-12-18T01:51:30.580Z,1015.59
2018-12-18T01:52:30.540Z,1015.59
2018-12-18T01:53:30.530Z,1015.59
2018-12-18T01:54:30.523Z,1015.56
2018-12-18T01:55:30.510Z,1015.56
2018-12-18T01:56:30.503Z,1015.60
2018-12-18T01:57:30.514Z,1015.64
2018-12-18T01:58:30.480Z,1015.63
2018-12-18T01:59:30.490Z,1015.64
2018-12-18T02:00:30.459Z,1015.63
2018-12-18T02:01:30.448Z,1015.66
2018-12-18T02:02:30.502Z,1015.68
2018-12-18T02:03:30.428Z,1015.63
2018-12-18T02:04:30.434Z,1015.65
2018-12-18T02:05:30.412Z,1015.63
2018-12-18T02:06:30.407Z,1015.68
2018-12-18T02:07:30.399Z,1015.65
2018-12-18T02:08:30.366Z,1015.67
2018-12-18T02:09:30.351Z,1015.65
2018-12-18T02:10:30.361Z,1015.63
2018-12-18T02:11:30.331Z,1015.61
2018-12-18T02:12:30.340Z,1015.60
2018-12-18T02:13:30.309Z,1015.58
2018-12-18T02:14:30.296Z,1015.60
2018-12-18T02:15:30.311Z,1015.59
2018-12-18T02:16:30.299Z,1015.56
2018-12-18T02:17:30.299Z,1015.56
2018-12-18T02:18:30.252Z,1015.58
2018-12-18T02:19:30.243Z,1015.56
2018-12-18T02:20:30.229Z,1015.60
2018-12-18T02:21:30.221Z,1015.62
2018-12-18T02:22:30.231Z,1015.67
2018-12-18T02:23:30.244Z,1015.66
2018-12-18T02:24:30.185Z,1015.67
2018-12-18T02:25:30.181Z,1015.63
2018-12-18T02:26:30.170Z,1015.62
2018-12-18T02:27:30.159Z,1015.58
2018-12-18T02:28:30.144Z,1015.57
2018-12-18T02:29:30.150Z,1015.57
2018-12-18T02:30:30.118Z,1015.57
2018-12-18T02:31:30.116Z,1015.59
2018-12-18T02:32:30.098Z,1015.55
2018-12-18T02:33:30.087Z,1015.57
2018-12-18T02:34:30.096Z,1015.56
2018-12-18T02:35:30.065Z,1015.62
2018-12-18T02:36:30.057Z,1015.61
2018-12-18T02:37:30.051Z,1015.59
2018-12-18T02:38:30.055Z,1015.58
2018-12-18T02:39:30.020Z,1015.62
2018-12-18T02:40:30.007Z,1015.62
2018-12-18T02:41:29.998Z,1015.63
2018-12-18T02:42:29.984Z,1015.61
2018-12-18T02:43:29.983Z,1015.63
2018-12-18T02:44:29.984Z,1015.58
2018-12-18T02:45:29.952Z,1015.55
2018-12-18T02:46:29.962Z,1015.56
2018-12-18T02:47:29.936Z,1015.58
2018-12-18T02:48:29.919Z,1015.59
2018-12-18T02:49:29.944Z,1015.56
2018-12-18T02:50:29.894Z,1015.57
2018-12-18T02:51:29.887Z,1015.58
2018-12-18T02:52:29.875Z,1015.57
2018-12-18T02:53:29.864Z,1015.56
2018-12-18T02:54:29.852Z,1015.55
2018-12-18T02:55:29.869Z,1015.57
2018-12-18T02:56:29.830Z,1015.55
2018-12-18T02:57:29.818Z,1015.59
2018-12-18T02:58:29.808Z,1015.60
2018-12-18T02:59:29.800Z,1015.58
2018-12-18T03:00:29.806Z,1015.57
2018-12-18T03:01:29.825Z,1015.61
2018-12-18T03:02:29.764Z,1015.59
2018-12-18T03:03:29.753Z,1015.60
2018-12-18T03:04:29.742Z,1015.58
2018-12-18T03:05:29.731Z,1015.68
2018-12-18T03:06:29.719Z,1015.71
2018-12-18T03:07:29.756Z,1015.68
2018-12-18T03:08:29.697Z,1015.71
2018-12-18T03:09:29.687Z,1015.73
2018-12-18T03:10:29.680Z,1015.74
2018-12-18T03:11:29.665Z,1015.73
2018-12-18T03:12:29.659Z,1015.75
2018-12-18T03:13:29.670Z,1015.71
2018-12-18T03:14:29.632Z,1015.73
2018-12-18T03:15:29.619Z,1015.71
2018-12-18T03:16:29.608Z,1015.78
2018-12-18T03:17:29.640Z,1015.73
2018-12-18T03:18:29.585Z,1015.74
2018-12-18T03:19:29.580Z,1015.74
2018-12-18T03:20:29.563Z,1015.73
2018-12-18T03:21:29.553Z,1015.77
2018-12-18T03:22:29.542Z,1015.79
2018-12-18T03:23:29.550Z,1015.78
2018-12-18T03:24:29.520Z,1015.80
2018-12-18T03:25:29.520Z,1015.79
2018-12-18T03:26:29.495Z,1015.78
2018-12-18T03:27:29.486Z,1015.79
2018-12-18T03:28:29.495Z,1015.76
2018-12-18T03:29:29.485Z,1015.74
2018-12-18T03:30:29.455Z,1015.71
2018-12-18T03:31:29.453Z,1015.69
2018-12-18T03:32:29.451Z,1015.77
2018-12-18T03:33:29.421Z,1015.74
2018-12-18T03:34:29.429Z,1015.72
2018-12-18T03:35:29.399Z,1015.76
2018-12-18T03:36:29.386Z,1015.73
2018-12-18T03:37:29.379Z,1015.73
2018-12-18T03:38:29.395Z,1015.71
2018-12-18T03:39:29.353Z,1015.69
2018-12-18T03:40:29.342Z,1015.72
2018-12-18T03:41:29.333Z,1015.74
2018-12-18T03:42:29.319Z,1015.77
2018-12-18T03:43:29.312Z,1015.79
2018-12-18T03:44:29.320Z,1015.82
2018-12-18T03:45:29.315Z,1015.80
2018-12-18T03:46:29.275Z,1015.80
2018-12-18T03:47:29.265Z,1015.81
2018-12-18T03:48:29.255Z,1015.87
2018-12-18T03:49:29.281Z,1015.80
2018-12-18T03:50:29.230Z,1015.82
2018-12-18T03:51:29.224Z,1015.78
2018-12-18T03:52:29.208Z,1015.79
2018-12-18T03:53:29.199Z,1015.84
2018-12-18T03:54:29.188Z,1015.79
2018-12-18T03:55:29.195Z,1015.76
2018-12-18T03:56:29.164Z,1015.76
2018-12-18T03:57:29.158Z,1015.74
2018-12-18T03:58:29.142Z,1015.77
2018-12-18T03:59:29.133Z,1015.74
2018-12-18T04:00:29.153Z,1015.73
2018-12-18T04:01:29.110Z,1015.74
2018-12-18T04:02:29.097Z,1015.77
2018-12-18T04:03:29.093Z,1015.79
2018-12-18T04:04:35.317Z,1015.79
2018-12-18T04:05:30.082Z,1015.71
2018-12-18T04:06:29.079Z,1015.73
2018-12-18T04:07:29.042Z,1015.74
2018-12-18T04:08:29.029Z,1015.71
2018-12-18T04:09:29.029Z,1015.75
2018-12-18T04:10:29.008Z,1015.73
2018-12-18T04:11:28.998Z,1015.73
2018-12-18T04:12:29.006Z,1015.72
2018-12-18T04:13:28.974Z,1015.71
2018-12-18T04:14:28.965Z,1015.70
2018-12-18T04:15:28.959Z,1015.74
2018-12-18T04:16:28.951Z,1015.76
2018-12-18T04:17:28.949Z,1015.70
2018-12-18T04:18:28.920Z,1015.69
2018-12-18T04:19:28.908Z,1015.71
2018-12-18T04:20:28.917Z,1015.72
2018-12-18T04:21:28.890Z,1015.69
2018-12-18T04:22:28.896Z,1015.69
2018-12-18T04:23:28.884Z,1015.72
2018-12-18T04:24:28.852Z,1015.75
2018-12-18T04:25:28.841Z,1015.75
2018-12-18T04:26:28.830Z,1015.78
2018-12-18T04:27:29.489Z,1015.78
2018-12-18T04:28:28.831Z,1015.81
2018-12-18T04:29:28.796Z,1015.81
2018-12-18T04:30:28.787Z,1015.79
2018-12-18T04:31:28.773Z,1015.81
2018-12-18T04:32:28.763Z,1015.85
2018-12-18T04:33:28.756Z,1015.86
2018-12-18T04:34:28.767Z,1015.89
2018-12-18T04:35:28.734Z,1015.88
2018-12-18T04:36:28.720Z,1015.93
2018-12-18T04:37:28.719Z,1015.94
2018-12-18T04:38:28.696Z,1015.96
2018-12-18T04:39:28.705Z,1015.97
2018-12-18T04:40:28.675Z,1015.97
2018-12-18T04:41:28.678Z,1015.94
2018-12-18T04:42:28.656Z,1016.01
2018-12-18T04:43:28.643Z,1016.03
2018-12-18T04:44:28.652Z,1016.03
2018-12-18T04:45:28.619Z,1016.02
2018-12-18T04:46:28.608Z,1016.02
2018-12-18T04:47:28.597Z,1015.98
2018-12-18T04:48:28.602Z,1016.01
2018-12-18T04:49:28.595Z,1016.03
2018-12-18T04:50:28.564Z,1016.00
2018-12-18T04:51:28.554Z,1016.05
2018-12-18T04:52:28.540Z,1016.04
2018-12-18T04:53:28.551Z,1016.08
2018-12-18T04:54:28.524Z,1016.05
2018-12-18T04:55:28.527Z,1016.04
2018-12-18T04:56:28.496Z,1016.00
2018-12-18T04:57:28.506Z,1016.01
2018-12-18T04:58:28.475Z,1016.00
2018-12-18T04:59:28.465Z,1016.01
2018-12-18T05:00:28.486Z,1015.96
2018-12-18T05:01:28.442Z,1015.93
2018-12-18T05:02:28.434Z,1015.93
2018-12-18T05:03:28.419Z,1015.94
2018-12-18T05:04:28.409Z,1015.93
2018-12-18T05:05:28.396Z,1015.93
2018-12-18T05:06:28.408Z,1015.91
2018-12-18T05:07:28.376Z,1015.95
2018-12-18T05:08:28.372Z,1015.93
2018-12-18T05:09:28.352Z,1015.96
2018-12-18T05:10:28.343Z,1015.95
2018-12-18T05:11:28.358Z,1015.94
2018-12-18T05:12:28.320Z,1015.95
2018-12-18T05:13:28.309Z,1015.91
2018-12-18T05:14:28.299Z,1015.89
2018-12-18T05:15:28.294Z,1015.92
2018-12-18T05:16:28.315Z,1015.95
2018-12-18T05:17:28.262Z,1015.95
2018-12-18T05:18:28.252Z,1015.91
2018-12-18T05:19:28.242Z,1015.90
2018-12-18T05:20:28.230Z,1015.90
2018-12-18T05:21:28.224Z,1015.92
2018-12-18T05:22:28.226Z,1015.91
2018-12-18T05:23:28.195Z,1015.97
2018-12-18T05:24:28.185Z,1015.96
2018-12-18T05:25:28.174Z,1015.94
2018-12-18T05:26:28.182Z,1015.97
2018-12-18T05:27:28.178Z,1015.95
2018-12-18T05:28:28.141Z,1015.90
2018-12-18T05:29:28.130Z,1015.94
2018-12-18T05:30:28.122Z,1015.95
2018-12-18T05:31:28.107Z,1015.91
2018-12-18T05:32:28.116Z,1015.93
2018-12-18T05:33:28.094Z,1015.99
2018-12-18T05:34:28.073Z,1015.96
2018-12-18T05:35:28.064Z,1015.94
2018-12-18T05:36:28.059Z,1015.96
2018-12-18T05:37:28.067Z,1015.91
2018-12-18T05:38:28.031Z,1015.92
2018-12-18T05:39:28.020Z,1015.91
2018-12-18T05:40:28.006Z,1016.01
2018-12-18T05:41:27.999Z,1015.97
2018-12-18T05:42:27.985Z,1016.01
2018-12-18T05:43:28.648Z,1016.00
2018-12-18T05:44:27.963Z,1016.00
2018-12-18T05:45:27.958Z,1015.94
2018-12-18T05:46:27.941Z,1015.97
2018-12-18T05:47:27.929Z,1015.99
2018-12-18T05:48:27.937Z,1016.02
2018-12-18T05:49:27.906Z,1016.04
2018-12-18T05:50:27.894Z,1016.06
2018-12-18T05:51:27.893Z,1016.08
2018-12-18T05:52:27.873Z,1016.09
2018-12-18T05:53:27.882Z,1016.08
2018-12-18T05:54:27.853Z,1016.11
2018-12-18T05:55:27.861Z,1016.13
2018-12-18T05:56:27.834Z,1016.12
2018-12-18T05:57:27.819Z,1016.09
2018-12-18T05:58:27.808Z,1016.13
2018-12-18T05:59:27.797Z,1016.16
2018-12-18T06:00:27.805Z,1016.17
2018-12-18T06:01:27.775Z,1016.23
2018-12-18T06:02:27.772Z,1016.21
2018-12-18T06:03:27.772Z,1016.23
2018-12-18T06:04:27.762Z,1016.19
2018-12-18T06:05:27.742Z,1016.22
2018-12-18T06:06:27.718Z,1016.20
2018-12-18T06:07:27.709Z,1016.28
2018-12-18T06:08:27.701Z,1016.28
2018-12-18T06:09:27.709Z,1016.26
2018-12-18T06:10:27.676Z,1016.31
2018-12-18T06:11:27.665Z,1016.32
2018-12-18T06:12:27.655Z,1016.30
2018-12-18T06:13:27.642Z,1016.34
2018-12-18T06:14:27.640Z,1016.31
2018-12-18T06:15:27.644Z,1016.32
2018-12-18T06:16:27.609Z,1016.30
2018-12-18T06:17:27.597Z,1016.31
2018-12-18T06:18:27.589Z,1016.30
2018-12-18T06:19:27.575Z,1016.32
2018-12-18T06:20:27.581Z,1016.32
2018-12-18T06:21:27.573Z,1016.30
2018-12-18T06:22:27.545Z,1016.29
2018-12-18T06:23:27.530Z,1016.27
2018-12-18T06:24:27.546Z,1016.23
2018-12-18T06:25:27.509Z,1016.23
2018-12-18T06:26:27.502Z,1016.22
2018-12-18T06:27:27.487Z,1016.24
2018-12-18T06:28:27.475Z,1016.24
2018-12-18T06:29:27.462Z,1016.24
2018-12-18T06:30:27.474Z,1016.26
2018-12-18T06:31:27.441Z,1016.23
2018-12-18T06:32:27.436Z,1016.21
2018-12-18T06:33:27.441Z,1016.22
2018-12-18T06:34:27.409Z,1016.22
2018-12-18T06:35:27.397Z,1016.22
2018-12-18T06:36:27.386Z,1016.20
2018-12-18T06:37:27.874Z,1016.17
2018-12-18T06:38:27.392Z,1016.16
2018-12-18T06:39:27.355Z,1016.15
2018-12-18T06:40:27.341Z,1016.17
2018-12-18T06:41:27.331Z,1016.18
2018-12-18T06:42:27.319Z,1016.20
2018-12-18T06:43:27.326Z,1016.22
2018-12-18T06:44:27.301Z,1016.24
2018-12-18T06:45:27.287Z,1016.27
2018-12-18T06:46:27.275Z,1016.32
2018-12-18T06:47:27.263Z,1016.30
2018-12-18T06:48:27.284Z,1016.34
2018-12-18T06:49:27.242Z,1016.35
2018-12-18T06:50:27.235Z,1016.34
2018-12-18T06:51:27.219Z,1016.29
2018-12-18T06:52:27.209Z,1016.35
2018-12-18T06:53:27.197Z,1016.35
2018-12-18T06:54:27.211Z,1016.33
2018-12-18T06:55:27.175Z,1016.34
2018-12-18T06:56:27.168Z,1016.34
2018-12-18T06:57:27.159Z,1016.29
2018-12-18T06:58:27.141Z,1016.30
2018-12-18T06:59:27.130Z,1016.33
2018-12-18T07:00:27.142Z,1016.32
2018-12-18T07:01:27.107Z,1016.35
2018-12-18T07:02:27.098Z,1016.35
2018-12-18T07:03:27.094Z,1016.36
2018-12-18T07:04:27.078Z,1016.32
2018-12-18T07:05:27.062Z,1016.34
2018-12-18T07:06:27.087Z,1016.31
2018-12-18T07:07:27.051Z,1016.32
2018-12-18T07:08:27.031Z,1016.34
2018-12-18T07:09:27.037Z,1016.34
2018-12-18T07:10:27.009Z,1016.34
2018-12-18T07:11:26.996Z,1016.37
2018-12-18T07:12:27.018Z,1016.38
2018-12-18T07:13:26.975Z,1016.36
2018-12-18T07:14:26.962Z,1016.34
2018-12-18T07:15:26.960Z,1016.37
2018-12-18T07:16:26.943Z,1016.42
2018-12-18T07:17:26.931Z,1016.42
2018-12-18T07:18:26.943Z,1016.43
2018-12-18T07:19:26.907Z,1016.40
2018-12-18T07:20:26.898Z,1016.38
2018-12-18T07:21:26.889Z,1016.37
2018-12-18T07:22:26.875Z,1016.39
2018-12-18T07:23:26.888Z,1016.38
2018-12-18T07:24:26.856Z,1016.40
2018-12-18T07:25:26.841Z,1016.40
2018-12-18T07:26:26.829Z,1016.38
2018-12-18T07:27:26.824Z,1016.45
2018-12-18T07:28:26.810Z,1016.39
2018-12-18T07:29:26.935Z,1016.40
2018-12-18T07:30:26.784Z,1016.40
2018-12-18T07:31:26.774Z,1016.42
2018-12-18T07:32:26.762Z,1016.40
2018-12-18T07:33:26.761Z,1016.42
2018-12-18T07:34:33.252Z,1016.42
2018-12-18T07:35:27.763Z,1016.40
2018-12-18T07:36:26.719Z,1016.42
2018-12-18T07:37:26.709Z,1016.44
2018-12-18T07:38:26.697Z,1016.47
2018-12-18T07:39:26.693Z,1016.46
2018-12-18T07:40:26.684Z,1016.44
2018-12-18T07:41:26.931Z,1016.45
2018-12-18T07:42:26.658Z,1016.46
2018-12-18T07:43:26.642Z,1016.45
2018-12-18T07:44:26.630Z,1016.43
2018-12-18T07:45:26.624Z,1016.45
2018-12-18T07:46:26.608Z,1016.50
2018-12-18T07:47:26.618Z,1016.48
2018-12-18T07:48:26.591Z,1016.51
2018-12-18T07:49:26.579Z,1016.46
2018-12-18T07:50:26.564Z,1016.54
2018-12-18T07:51:26.556Z,1016.54
2018-12-18T07:52:26.542Z,1016.53
2018-12-18T07:53:26.560Z,1016.55
2018-12-18T07:54:26.524Z,1016.49
2018-12-18T07:55:26.509Z,1016.48
2018-12-18T07:56:26.497Z,1016.51
2018-12-18T07:57:26.486Z,1016.51
2018-12-18T07:58:26.476Z,1016.49
2018-12-18T07:59:26.497Z,1016.48
2018-12-18T08:00:26.460Z,1016.53
2018-12-18T08:01:26.443Z,1016.52
2018-12-18T08:02:26.431Z,1016.50
2018-12-18T08:03:26.420Z,1016.54
2018-12-18T08:04:26.411Z,1016.54
2018-12-18T08:05:29.861Z,1016.51
2018-12-18T08:06:26.423Z,1016.53
2018-12-18T08:07:26.377Z,1016.51
2018-12-18T08:08:26.366Z,1016.54
2018-12-18T08:09:26.358Z,1016.52
2018-12-18T08:10:26.343Z,1016.57
2018-12-18T08:11:26.356Z,1016.59
2018-12-18T08:12:26.328Z,1016.54
2018-12-18T08:13:26.310Z,1016.62
2018-12-18T08:14:26.299Z,1016.57
2018-12-18T08:15:26.288Z,1016.58
2018-12-18T08:16:26.274Z,1016.60
2018-12-18T08:17:26.299Z,1016.63
2018-12-18T08:18:26.260Z,1016.65
2018-12-18T08:19:26.244Z,1016.61
2018-12-18T08:20:26.232Z,1016.68
2018-12-18T08:21:26.222Z,1016.72
2018-12-18T08:22:26.209Z,1016.66
2018-12-18T08:23:26.212Z,1016.72
2018-12-18T08:24:26.193Z,1016.72
2018-12-18T08:25:26.178Z,1016.74
2018-12-18T08:26:26.165Z,1016.77
2018-12-18T08:27:26.190Z,1016.75
2018-12-18T08:28:26.146Z,1016.75
2018-12-18T08:29:26.133Z,1016.76
2018-12-18T08:30:26.126Z,1016.76
2018-12-18T08:31:26.108Z,1016.79
2018-12-18T08:32:26.101Z,1016.84
2018-12-18T08:33:26.124Z,1016.83
2018-12-18T08:34:26.075Z,1016.82
2018-12-18T08:35:26.066Z,1016.78
2018-12-18T08:36:26.072Z,1016.82
2018-12-18T08:37:26.043Z,1016.86
2018-12-18T08:38:26.033Z,1016.84
2018-12-18T08:39:26.042Z,1016.87
2018-12-18T08:40:26.013Z,1016.84
2018-12-18T08:41:25.999Z,1016.90
2018-12-18T08:42:25.991Z,1016.83
2018-12-18T08:43:25.982Z,1016.87
2018-12-18T08:44:25.972Z,1016.85
2018-12-18T08:45:25.978Z,1016.89
2018-12-18T08:46:25.941Z,1016.84
2018-12-18T08:47:25.935Z,1016.83
2018-12-18T08:48:25.921Z,1016.84
2018-12-18T08:49:25.908Z,1016.86
2018-12-18T08:50:25.906Z,1016.85
2018-12-18T08:51:25.921Z,1016.90
2018-12-18T08:52:25.875Z,1016.87
2018-12-18T08:53:25.863Z,1016.88
2018-12-18T08:54:25.852Z,1016.87
2018-12-18T08:55:25.840Z,1016.92
2018-12-18T08:56:25.834Z,1016.92
2018-12-18T08:57:25.857Z,1016.90
2018-12-18T08:58:25.807Z,1016.95
2018-12-18T08:59:25.794Z,1016.94
2018-12-18T09:00:25.784Z,1016.95
2018-12-18T09:01:25.773Z,1016.94
2018-12-18T09:02:25.762Z,1016.93
2018-12-18T09:03:25.791Z,1016.98
2018-12-18T09:04:25.739Z,1016.93
2018-12-18T09:05:25.728Z,1016.92
2018-12-18T09:06:25.718Z,1016.91
2018-12-18T09:07:25.704Z,1016.90
2018-12-18T09:08:25.693Z,1016.94
2018-12-18T09:09:25.717Z,1016.95
2018-12-18T09:10:25.676Z,1016.95
2018-12-18T09:11:25.660Z,1016.96
2018-12-18T09:12:25.649Z,1016.95
2018-12-18T09:13:25.672Z,1016.96
2018-12-18T09:14:25.628Z,1016.95
2018-12-18T09:15:25.615Z,1016.98
2018-12-18T09:16:25.608Z,1016.94
2018-12-18T09:17:25.601Z,1016.94
2018-12-18T09:18:25.579Z,1016.92
2018-12-18T09:19:25.607Z,1016.91
2018-12-18T09:20:25.560Z,1016.91
2018-12-18T09:21:25.546Z,1016.95
2018-12-18T09:22:25.536Z,1016.94
2018-12-18T09:23:25.526Z,1016.95
2018-12-18T09:24:25.514Z,1016.96
2018-12-18T09:25:25.534Z,1016.96
2018-12-18T09:26:25.490Z,1016.95
2018-12-18T09:27:25.480Z,1016.92
2018-12-18T09:28:25.466Z,1016.90
2018-12-18T09:29:25.466Z,1016.89
2018-12-18T09:30:25.448Z,1016.89
2018-12-18T09:31:25.519Z,1016.88
2018-12-18T09:32:25.424Z,1016.89
2018-12-18T09:33:25.412Z,1016.87
2018-12-18T09:34:25.418Z,1016.85
2018-12-18T09:35:25.392Z,1016.91
2018-12-18T09:36:25.384Z,1016.86
2018-12-18T09:37:25.413Z,1016.87
2018-12-18T09:38:25.355Z,1016.92
2018-12-18T09:39:25.342Z,1016.83
2018-12-18T09:40:25.333Z,1016.84
2018-12-18T09:41:25.323Z,1016.81
2018-12-18T09:42:25.316Z,1016.80
2018-12-18T09:43:25.336Z,1016.77
2018-12-18T09:44:25.293Z,1016.77
2018-12-18T09:45:25.276Z,1016.73
2018-12-18T09:46:25.265Z,1016.78
2018-12-18T09:47:25.256Z,1016.77
2018-12-18T09:48:25.242Z,1016.78
2018-12-18T09:49:25.256Z,1016.80
2018-12-18T09:50:25.222Z,1016.83
2018-12-18T09:51:25.213Z,1016.79
2018-12-18T09:52:25.201Z,1016.82
2018-12-18T09:53:25.185Z,1016.77
2018-12-18T09:54:25.176Z,1016.74
2018-12-18T09:55:25.197Z,1016.67
2018-12-18T09:56:25.153Z,1016.66
2018-12-18T09:57:25.207Z,1016.67
2018-12-18T09:58:25.132Z,1016.64
2018-12-18T09:59:25.120Z,1016.67
2018-12-18T10:00:25.109Z,1016.63
2018-12-18T10:01:25.130Z,1016.56
2018-12-18T10:02:25.086Z,1016.59
2018-12-18T10:03:25.079Z,1016.55
2018-12-18T10:04:25.104Z,1016.54
2018-12-18T10:05:25.051Z,1016.52
2018-12-18T10:06:25.041Z,1016.53
2018-12-18T10:07:25.066Z,1016.45
2018-12-18T10:08:25.019Z,1016.47
2018-12-18T10:09:25.023Z,1016.37
2018-12-18T10:10:24.995Z,1016.40
2018-12-18T10:11:24.986Z,1016.35
2018-12-18T10:12:24.974Z,1016.31
2018-12-18T10:13:24.985Z,1016.27
2018-12-18T10:14:24.952Z,1016.31
2018-12-18T10:15:24.949Z,1016.21
2018-12-18T10:16:24.930Z,1016.22
2018-12-18T10:17:24.942Z,1016.16
2018-12-18T10:18:24.907Z,1016.20
2018-12-18T10:19:24.909Z,1016.14
2018-12-18T10:20:24.883Z,1016.08
2018-12-18T10:21:24.879Z,1016.08
2018-12-18T10:22:24.862Z,1016.06
2018-12-18T10:23:24.853Z,1016.08
2018-12-18T10:24:24.840Z,1016.01
2018-12-18T10:25:24.858Z,1016.05
2018-12-18T10:26:24.817Z,1016.05
2018-12-18T10:27:24.809Z,1016.06
2018-12-18T10:28:24.796Z,1016.05
2018-12-18T10:29:24.799Z,1016.03
2018-12-18T10:30:24.783Z,1016.02
2018-12-18T10:31:24.797Z,1015.97
2018-12-18T10:32:24.750Z,1016.01
2018-12-18T10:33:24.760Z,1016.01
2018-12-18T10:34:24.728Z,1015.96
2018-12-18T10:35:24.718Z,1016.02
2018-12-18T10:36:24.705Z,1016.01
2018-12-18T10:37:24.719Z,1016.01
2018-12-18T10:38:24.682Z,1015.98
2018-12-18T10:39:24.686Z,1015.99
2018-12-18T10:40:24.662Z,1016.00
2018-12-18T10:41:24.654Z,1015.95
2018-12-18T10:42:24.637Z,1015.93
2018-12-18T10:43:24.663Z,1015.96
2018-12-18T10:44:24.616Z,1015.96
2018-12-18T10:45:24.619Z,1016.00
2018-12-18T10:46:24.593Z,1015.92
2018-12-18T10:47:24.583Z,1015.95
2018-12-18T10:48:24.574Z,1015.96
2018-12-18T10:49:24.607Z,1015.97
2018-12-18T10:50:24.552Z,1015.93
2018-12-18T10:51:24.551Z,1015.97
2018-12-18T10:52:24.530Z,1015.90
2018-12-18T10:53:24.517Z,1015.90
2018-12-18T10:54:24.507Z,1015.89
2018-12-18T10:55:24.615Z,1015.88
2018-12-18T10:56:24.482Z,1015.83
2018-12-18T10:57:24.471Z,1015.79
2018-12-18T10:58:24.461Z,1015.78
2018-12-18T10:59:24.447Z,1015.73
2018-12-18T11:00:24.475Z,1015.75
2018-12-18T11:01:24.442Z,1015.77
2018-12-18T11:02:24.414Z,1015.78
2018-12-18T11:03:24.403Z,1015.81
2018-12-18T11:04:24.395Z,1015.79
2018-12-18T11:05:24.381Z,1015.82
2018-12-18T11:06:24.423Z,1015.82
2018-12-18T11:07:24.384Z,1015.80
2018-12-18T11:08:24.347Z,1015.84
2018-12-18T11:09:24.337Z,1015.76
2018-12-18T11:10:24.335Z,1015.80
2018-12-18T11:11:24.313Z,1015.79
2018-12-18T11:12:24.335Z,1015.81
2018-12-18T11:13:24.303Z,1015.81
2018-12-18T11:14:24.297Z,1015.85
2018-12-18T11:15:24.281Z,1015.82
2018-12-18T11:16:24.273Z,1015.77
2018-12-18T11:17:24.246Z,1015.82
2018-12-18T11:18:24.271Z,1015.78
2018-12-18T11:19:24.228Z,1015.79
2018-12-18T11:20:24.210Z,1015.83
2018-12-18T11:21:24.209Z,1015.79
2018-12-18T11:22:24.189Z,1015.78
2018-12-18T11:23:24.178Z,1015.74
2018-12-18T11:24:24.217Z,1015.78
2018-12-18T11:25:24.155Z,1015.72
2018-12-18T11:26:24.147Z,1015.72
2018-12-18T11:27:24.133Z,1015.66
2018-12-18T11:28:24.122Z,1015.71
2018-12-18T11:29:24.116Z,1015.72
2018-12-18T11:30:24.111Z,1015.65
2018-12-18T11:31:24.088Z,1015.70
2018-12-18T11:32:24.138Z,1015.65
2018-12-18T11:33:24.064Z,1015.66
2018-12-18T11:34:24.056Z,1015.62
2018-12-18T11:35:24.068Z,1015.68
2018-12-18T11:36:24.033Z,1015.70
2018-12-18T11:37:24.975Z,1015.70
2018-12-18T11:38:24.010Z,1015.67
2018-12-18T11:39:24.002Z,1015.67
2018-12-18T11:40:24.110Z,1015.63
2018-12-18T11:41:23.985Z,1015.59
2018-12-18T11:42:23.963Z,1015.54
2018-12-18T11:43:23.954Z,1015.48
2018-12-18T11:44:23.942Z,1015.46
2018-12-18T11:45:23.931Z,1015.40
2018-12-18T11:46:23.944Z,1015.39
2018-12-18T11:47:23.909Z,1015.37
2018-12-18T11:48:23.899Z,1015.34
2018-12-18T11:49:23.927Z,1015.35
2018-12-18T11:50:23.873Z,1015.33
2018-12-18T11:51:23.865Z,1015.35
2018-12-18T11:52:23.888Z,1015.34
2018-12-18T11:53:23.847Z,1015.32
2018-12-18T11:54:23.828Z,1015.26
2018-12-18T11:55:23.819Z,1015.35
2018-12-18T11:56:23.807Z,1015.29
2018-12-18T11:57:23.796Z,1015.32
2018-12-18T11:58:23.800Z,1015.29
2018-12-18T11:59:23.781Z,1015.27
2018-12-18T12:00:23.764Z,1015.22
2018-12-18T12:01:23.753Z,1015.24
2018-12-18T12:02:23.740Z,1015.22
2018-12-18T12:03:23.767Z,1015.20
2018-12-18T12:04:23.719Z,1015.23
2018-12-18T12:05:23.716Z,1015.22